Terminal Aerodrome Forecast
Issued by NWS Bismarck, ND

Home | Current Version | Previous Version | Graphics & Text | Print | Product List | Glossary On
Versions: 1 2 3 4 5 6 7 8 9 10 11 12 13 14 15 16 17 18 19 20
000
FTUS43 KBIS 292300
TAFISN
TAF
KISN 292330Z 3000/3024 12012KT 6SM -SHRA SCT012 OVC020
     FM300700 13010KT 5SM -SHRA BR BKN008 OVC015
     FM301600 12008KT 5SM -SHRA BKN012 OVC020=

USA.gov is the U.S. government's official web portal to all federal, state and local government web resources and services.